createdAt,value
2022-10-17T00:01:48.193Z,31.50
2022-10-17T00:04:19.138Z,37.00
2022-10-17T00:06:50.068Z,39.00
2022-10-17T00:09:20.894Z,40.25
2022-10-17T00:11:52.264Z,36.50
2022-10-17T00:14:22.474Z,38.25
2022-10-17T00:16:53.322Z,27.75
2022-10-17T00:19:24.326Z,44.25
2022-10-17T00:21:54.448Z,47.00
2022-10-17T00:24:24.666Z,48.00
2022-10-17T00:26:56.470Z,50.75
2022-10-17T00:29:27.686Z,53.75
2022-10-17T00:31:59.101Z,52.00
2022-10-17T00:34:30.334Z,56.00
2022-10-17T00:37:00.573Z,54.75
2022-10-17T00:39:31.585Z,51.00
2022-10-17T00:42:02.180Z,46.25
2022-10-17T00:44:35.750Z,45.50
2022-10-17T00:47:09.112Z,47.00
2022-10-17T00:49:41.053Z,48.50
2022-10-17T00:52:14.228Z,44.75
2022-10-17T00:54:47.361Z,50.25
2022-10-17T00:57:19.166Z,35.25
2022-10-17T00:59:52.341Z,43.75
2022-10-17T01:02:23.556Z,41.50
2022-10-17T01:04:56.533Z,40.00
2022-10-17T01:07:33.152Z,33.50
2022-10-17T01:10:01.712Z,24.75
2022-10-17T01:12:54.885Z,23.50
2022-10-17T01:15:49.215Z,27.00
2022-10-17T01:18:43.819Z,36.50
2022-10-17T01:21:35.646Z,37.25
2022-10-17T01:24:14.656Z,42.00
2022-10-17T01:27:06.588Z,46.00
2022-10-17T01:30:03.287Z,43.75
2022-10-17T01:35:27.738Z,50.75
2022-10-17T01:38:03.398Z,56.75
2022-10-17T01:40:45.653Z,63.75
2022-10-17T01:43:27.311Z,57.00
2022-10-17T01:46:15.569Z,59.25
2022-10-17T01:48:46.984Z,56.25
2022-10-17T01:51:20.135Z,55.75
2022-10-17T01:53:56.396Z,62.25
2022-10-17T01:56:29.577Z,66.50
2022-10-17T01:59:02.823Z,64.25
2022-10-17T02:01:36.518Z,63.75
2022-10-17T02:04:09.513Z,74.00
2022-10-17T02:06:39.829Z,63.75
2022-10-17T02:09:40.262Z,60.00
2022-10-17T02:12:42.126Z,63.25
2022-10-17T02:15:30.540Z,65.25
2022-10-17T02:18:06.424Z,91.75
2022-10-17T02:20:51.292Z,98.25
2022-10-17T02:23:33.450Z,101.50
2022-10-17T02:26:09.840Z,77.50
2022-10-17T02:28:43.690Z,71.25
2022-10-17T02:31:19.635Z,62.50
2022-10-17T02:33:53.613Z,61.00
2022-10-17T02:36:27.035Z,63.50
2022-10-17T02:38:59.402Z,62.00
2022-10-17T02:41:31.666Z,57.00
2022-10-17T02:44:05.340Z,54.25
2022-10-17T02:46:38.027Z,60.75
2022-10-17T02:49:19.634Z,62.50
2022-10-17T02:52:04.390Z,60.75
2022-10-17T02:54:46.543Z,63.75
2022-10-17T02:57:40.123Z,72.00
2022-10-17T03:00:17.880Z,98.75
2022-10-17T03:02:50.943Z,93.50
2022-10-17T03:05:26.079Z,94.00
2022-10-17T03:07:56.864Z,91.50
2022-10-17T03:10:27.039Z,71.75
2022-10-17T03:12:57.862Z,72.75
2022-10-17T03:15:28.081Z,82.00
2022-10-17T03:18:00.133Z,85.25
2022-10-17T03:20:30.705Z,86.50
2022-10-17T03:23:02.019Z,82.25
2022-10-17T03:25:32.447Z,76.00
2022-10-17T03:28:02.809Z,83.00
2022-10-17T03:30:33.913Z,71.50
2022-10-17T03:33:04.299Z,62.50
2022-10-17T03:35:34.472Z,60.00
2022-10-17T03:38:04.853Z,51.25
2022-10-17T03:40:35.197Z,47.50
2022-10-17T03:43:05.579Z,41.75
2022-10-17T03:45:36.110Z,38.75
2022-10-17T03:48:06.976Z,39.25
2022-10-17T03:50:37.245Z,38.25
2022-10-17T03:53:07.526Z,37.00
2022-10-17T03:55:38.966Z,33.00
2022-10-17T03:58:10.124Z,34.50
2022-10-17T04:00:40.514Z,32.00
2022-10-17T04:03:16.271Z,32.75
2022-10-17T04:05:43.217Z,38.50
2022-10-17T04:08:13.902Z,36.75
2022-10-17T04:10:45.562Z,38.00
2022-10-17T04:13:15.886Z,39.25
2022-10-17T04:16:00.960Z,40.00
2022-10-17T04:18:32.098Z,35.00
2022-10-17T04:21:04.017Z,34.00
2022-10-17T04:23:36.395Z,33.25
2022-10-17T04:26:07.537Z,34.75
2022-10-17T04:31:12.759Z,36.75
2022-10-17T04:33:43.323Z,37.50
2022-10-17T04:36:16.604Z,34.50
2022-10-17T04:38:47.757Z,40.25
2022-10-17T04:41:19.762Z,38.00
2022-10-17T04:43:51.408Z,41.25
2022-10-17T04:46:21.840Z,48.50
2022-10-17T04:48:53.843Z,47.25
2022-10-17T04:51:26.596Z,45.25
2022-10-17T04:53:57.636Z,44.00
2022-10-17T04:56:27.994Z,58.75
2022-10-17T04:58:59.997Z,74.00
2022-10-17T05:01:30.542Z,48.50
2022-10-17T05:04:00.877Z,54.75
2022-10-17T05:06:31.579Z,69.75
2022-10-17T05:09:01.936Z,71.75
2022-10-17T05:11:32.497Z,55.50
2022-10-17T05:14:03.803Z,65.00
2022-10-17T05:16:35.678Z,60.00
2022-10-17T05:19:06.902Z,85.75
2022-10-17T05:21:38.251Z,74.75
2022-10-17T05:24:10.372Z,68.50
2022-10-17T05:26:41.340Z,67.25
2022-10-17T05:29:12.399Z,66.00
2022-10-17T05:31:42.924Z,62.00
2022-10-17T05:34:14.410Z,33.25
2022-10-17T05:36:44.721Z,35.50
2022-10-17T05:39:15.147Z,27.75
2022-10-17T05:41:45.974Z,25.75
2022-10-17T05:44:17.186Z,29.25
2022-10-17T05:47:08.003Z,26.50
2022-10-17T05:49:46.434Z,33.75
2022-10-17T05:52:11.240Z,25.00
2022-10-17T05:54:41.439Z,31.00
2022-10-17T05:57:11.716Z,24.25
2022-10-17T05:59:42.234Z,37.00
2022-10-17T06:02:19.534Z,39.25
2022-10-17T06:04:54.718Z,42.25
2022-10-17T06:07:26.117Z,40.75
2022-10-17T06:09:56.945Z,45.25
2022-10-17T06:12:27.474Z,47.00
2022-10-17T06:14:58.127Z,51.00
2022-10-17T06:17:29.106Z,46.50
2022-10-17T06:19:59.505Z,45.25
2022-10-17T06:22:30.627Z,46.00
2022-10-17T06:25:02.887Z,48.75
2022-10-17T06:27:36.117Z,48.75
2022-10-17T06:30:09.455Z,47.25
2022-10-17T06:32:40.774Z,44.25
2022-10-17T06:35:14.598Z,45.75
2022-10-17T06:37:46.604Z,43.25
2022-10-17T06:40:16.994Z,45.25
2022-10-17T06:42:49.542Z,46.00
2022-10-17T06:45:19.984Z,47.00
2022-10-17T06:47:50.375Z,44.50
2022-10-17T06:50:20.930Z,41.75
2022-10-17T06:52:53.582Z,41.25
2022-10-17T06:55:26.419Z,45.75
2022-10-17T06:57:58.771Z,43.00
2022-10-17T07:00:29.523Z,41.00
2022-10-17T07:03:00.904Z,43.00
2022-10-17T07:05:31.341Z,44.25
2022-10-17T07:08:02.353Z,41.00
2022-10-17T07:10:32.871Z,36.50
2022-10-17T07:13:05.579Z,39.75
2022-10-17T07:15:37.005Z,45.00
2022-10-17T07:18:07.819Z,45.25
2022-10-17T07:20:40.492Z,44.50
2022-10-17T07:23:13.758Z,45.50
2022-10-17T07:25:47.647Z,44.25
2022-10-17T07:28:18.711Z,41.25
2022-10-17T07:30:52.094Z,43.75
2022-10-17T07:33:22.522Z,43.00
2022-10-17T07:35:52.883Z,38.50
2022-10-17T07:38:23.217Z,39.00
2022-10-17T07:41:02.136Z,44.25
2022-10-17T07:43:35.877Z,43.00
2022-10-17T07:46:06.518Z,41.50
2022-10-17T07:48:36.739Z,38.25
2022-10-17T07:51:09.619Z,28.00
2022-10-17T07:53:42.686Z,35.50
2022-10-17T07:56:14.067Z,37.20
2022-10-17T07:58:44.434Z,38.20
2022-10-17T08:01:15.724Z,37.20
2022-10-17T08:03:48.581Z,34.00
2022-10-17T08:06:19.182Z,34.20
2022-10-17T08:08:49.503Z,31.40
2022-10-17T08:11:21.380Z,30.40
2022-10-17T08:13:52.663Z,32.00
2022-10-17T08:16:24.845Z,25.40
2022-10-17T08:18:56.037Z,31.00
2022-10-17T08:21:26.994Z,30.80
2022-10-17T08:23:57.891Z,29.40
2022-10-17T08:26:31.446Z,32.40
2022-10-17T08:29:02.406Z,34.80
2022-10-17T08:31:34.130Z,30.80
2022-10-17T08:34:04.474Z,35.80
2022-10-17T08:36:35.294Z,32.60
2022-10-17T08:39:06.085Z,34.60
2022-10-17T08:41:57.040Z,33.20
2022-10-17T08:44:39.287Z,26.80
2022-10-17T08:47:32.506Z,20.80
2022-10-17T08:50:35.087Z,24.20
2022-10-17T08:53:38.272Z,18.00
2022-10-17T08:56:19.568Z,18.00
2022-10-17T09:05:17.095Z,16.00
2022-10-17T09:08:10.985Z,17.80
2022-10-17T09:11:02.312Z,19.60
2022-10-17T09:14:05.156Z,16.00
2022-10-17T09:17:11.464Z,21.00
2022-10-17T09:19:45.267Z,16.00
2022-10-17T09:22:24.748Z,17.00
2022-10-17T09:25:00.734Z,14.80
2022-10-17T09:27:48.867Z,12.60
2022-10-17T09:30:46.506Z,13.40
2022-10-17T09:33:35.243Z,14.00
2022-10-17T09:35:55.042Z,12.20
2022-10-17T09:38:28.225Z,15.20
2022-10-17T09:41:01.582Z,13.00
2022-10-17T09:43:32.003Z,10.40
2022-10-17T09:46:05.518Z,14.00
2022-10-17T09:48:42.193Z,16.20
2022-10-17T09:51:22.015Z,12.60
2022-10-17T09:53:57.799Z,16.60
2022-10-17T09:56:28.096Z,13.80
2022-10-17T09:58:59.431Z,14.00
2022-10-17T10:01:31.676Z,13.60
2022-10-17T10:04:14.090Z,13.20
2022-10-17T10:07:07.085Z,9.80
2022-10-17T10:09:40.484Z,10.80
2022-10-17T10:12:17.798Z,10.60
2022-10-17T10:14:52.179Z,12.80
2022-10-17T10:17:39.027Z,11.60
2022-10-17T10:20:30.214Z,10.40
2022-10-17T10:23:15.873Z,8.00
2022-10-17T10:25:52.254Z,10.60
2022-10-17T10:28:34.343Z,12.00
2022-10-17T10:31:07.882Z,12.40
2022-10-17T10:33:41.754Z,15.20
2022-10-17T10:36:12.264Z,16.80
2022-10-17T10:38:42.691Z,9.00
2022-10-17T10:41:20.826Z,16.00
2022-10-17T10:43:53.280Z,11.60
2022-10-17T10:46:28.684Z,11.00
2022-10-17T10:49:01.435Z,12.20
2022-10-17T10:51:41.565Z,13.80
2022-10-17T10:54:23.039Z,11.00
2022-10-17T10:56:56.800Z,10.00
2022-10-17T10:59:41.896Z,9.60
2022-10-17T11:02:15.089Z,11.60
2022-10-17T11:05:09.669Z,11.60
2022-10-17T11:07:45.648Z,18.60
2022-10-17T11:10:19.205Z,18.40
2022-10-17T11:16:22.818Z,17.00
2022-10-17T11:19:02.526Z,16.60
2022-10-17T11:22:03.301Z,14.20
2022-10-17T11:27:54.860Z,18.00
2022-10-17T11:30:28.493Z,15.00
2022-10-17T11:33:03.393Z,15.40
2022-10-17T11:35:53.627Z,17.60
2022-10-17T11:38:45.157Z,17.60
2022-10-17T11:41:30.349Z,11.80
2022-10-17T11:44:20.290Z,16.20
2022-10-17T11:46:53.548Z,17.40
2022-10-17T11:49:39.869Z,12.00
2022-10-17T11:52:18.549Z,11.20
2022-10-17T11:54:54.921Z,15.00
2022-10-17T11:57:46.483Z,16.60
2022-10-17T12:00:32.430Z,17.60
2022-10-17T12:03:21.276Z,12.40
2022-10-17T12:06:22.888Z,12.80
2022-10-17T12:09:18.891Z,16.80
2022-10-17T12:11:58.621Z,14.00
2022-10-17T12:14:54.441Z,11.40
2022-10-17T12:17:43.099Z,14.00
2022-10-17T12:20:25.544Z,14.60
2022-10-17T12:26:11.235Z,16.00
2022-10-17T12:28:47.470Z,19.20
2022-10-17T12:31:22.819Z,13.40
2022-10-17T12:34:10.525Z,14.20
2022-10-17T12:36:41.231Z,11.40
2022-10-17T12:39:14.446Z,14.00
2022-10-17T12:41:49.443Z,11.40
2022-10-17T12:44:24.835Z,18.60
2022-10-17T12:47:08.058Z,15.40
2022-10-17T12:49:41.753Z,12.60
2022-10-17T12:52:34.146Z,13.00
2022-10-17T12:57:59.406Z,16.60
2022-10-17T13:00:35.785Z,18.80
2022-10-17T13:03:27.794Z,12.60
2022-10-17T13:06:01.068Z,16.40
2022-10-17T13:08:43.014Z,11.60
2022-10-17T13:11:11.862Z,15.00
2022-10-17T13:13:48.644Z,12.80
2022-10-17T13:16:36.983Z,14.60
2022-10-17T13:19:17.462Z,14.00
2022-10-17T13:22:01.030Z,16.00
2022-10-17T13:24:55.120Z,13.50
2022-10-17T13:27:31.909Z,14.00
2022-10-17T13:30:30.933Z,16.00
2022-10-17T13:32:59.843Z,15.00
2022-10-17T13:38:09.934Z,14.00
2022-10-17T13:40:50.117Z,14.75
2022-10-17T13:43:20.013Z,13.25
2022-10-17T13:46:09.124Z,13.25
2022-10-17T13:48:39.255Z,15.00
2022-10-17T13:51:11.123Z,11.25
2022-10-17T13:53:42.491Z,15.00
2022-10-17T13:56:29.504Z,15.00
2022-10-17T13:59:01.327Z,14.50
2022-10-17T14:01:32.607Z,15.50
2022-10-17T14:04:09.527Z,14.75
2022-10-17T14:06:37.099Z,15.50
2022-10-17T14:09:10.158Z,13.75
2022-10-17T14:11:43.850Z,14.75
2022-10-17T14:14:23.332Z,18.25
2022-10-17T14:16:54.496Z,14.25
2022-10-17T14:19:31.171Z,15.75
2022-10-17T14:22:19.829Z,14.00
2022-10-17T14:24:51.613Z,21.50
2022-10-17T14:27:40.244Z,13.00
2022-10-17T14:30:55.181Z,14.00
2022-10-17T14:33:10.167Z,15.75
2022-10-17T14:35:55.391Z,17.00
2022-10-17T14:38:46.275Z,14.50
2022-10-17T14:41:44.658Z,16.50
2022-10-17T14:44:01.872Z,18.75
2022-10-17T14:46:36.834Z,19.50
2022-10-17T14:49:10.081Z,14.25
2022-10-17T14:51:50.646Z,18.00
2022-10-17T14:54:27.167Z,19.25
2022-10-17T14:56:57.529Z,23.75
2022-10-17T14:59:52.929Z,17.75
2022-10-17T15:02:00.838Z,22.25
2022-10-17T15:04:31.166Z,24.25
2022-10-17T15:07:01.590Z,20.75
2022-10-17T15:09:33.952Z,20.25
2022-10-17T15:12:09.700Z,20.75
2022-10-17T15:14:40.344Z,17.75
2022-10-17T15:20:09.199Z,19.75
2022-10-17T15:22:39.653Z,17.75
2022-10-17T15:25:14.564Z,20.75
2022-10-17T15:28:06.075Z,18.75
2022-10-17T15:30:38.506Z,21.00
2022-10-17T15:33:09.563Z,20.00
2022-10-17T15:35:40.602Z,18.00
2022-10-17T15:39:02.749Z,19.00
2022-10-17T15:40:49.571Z,18.75
2022-10-17T15:43:25.126Z,23.25
2022-10-17T15:46:00.480Z,18.00
2022-10-17T15:48:35.638Z,18.75
2022-10-17T15:54:21.324Z,19.25
2022-10-17T15:57:00.500Z,21.00
2022-10-17T15:59:34.912Z,18.00
2022-10-17T16:02:12.090Z,20.25
2022-10-17T16:04:47.384Z,17.00
2022-10-17T16:07:27.122Z,25.25
2022-10-17T16:09:59.166Z,26.50
2022-10-17T16:12:34.959Z,27.00
2022-10-17T16:15:02.596Z,19.25
2022-10-17T16:17:33.352Z,20.75
2022-10-17T16:20:04.332Z,22.75
2022-10-17T16:22:46.710Z,21.75
2022-10-17T16:25:41.607Z,24.25
2022-10-17T16:28:14.801Z,22.75
2022-10-17T16:30:46.524Z,13.50
2022-10-17T16:36:24.987Z,24.75
2022-10-17T16:38:56.735Z,26.25
2022-10-17T16:41:32.988Z,26.50
2022-10-17T16:44:08.899Z,23.25
2022-10-17T16:46:39.309Z,25.00
2022-10-17T16:49:10.975Z,23.25
2022-10-17T16:51:41.873Z,21.75
2022-10-17T16:54:13.894Z,21.00
2022-10-17T16:56:53.484Z,23.75
2022-10-17T16:59:25.837Z,27.75
2022-10-17T17:01:58.904Z,34.00
2022-10-17T17:04:35.724Z,23.25
2022-10-17T17:07:06.428Z,25.50
2022-10-17T17:09:38.789Z,26.75
2022-10-17T17:12:10.724Z,25.25
2022-10-17T17:14:43.757Z,23.00
2022-10-17T17:17:37.065Z,22.75
2022-10-17T17:19:54.358Z,25.25
2022-10-17T17:22:28.261Z,22.50
2022-10-17T17:25:01.187Z,23.00
2022-10-17T17:27:55.335Z,24.00
2022-10-17T17:47:47.802Z,23.25
2022-10-17T17:51:41.272Z,29.25
2022-10-17T17:53:31.479Z,29.75
2022-10-17T17:56:30.836Z,27.00
2022-10-17T18:02:34.566Z,26.25
2022-10-17T18:05:23.259Z,27.75
2022-10-17T18:07:43.231Z,33.00
2022-10-17T18:10:16.696Z,33.50
2022-10-17T18:13:55.857Z,29.00
2022-10-17T18:16:10.306Z,24.00
2022-10-17T18:18:58.793Z,31.50
2022-10-17T18:21:40.138Z,32.50
2022-10-17T18:24:11.536Z,29.00
2022-10-17T18:26:44.744Z,31.50
2022-10-17T18:29:27.358Z,29.00
2022-10-17T18:32:00.346Z,29.50
2022-10-17T18:34:31.160Z,27.50
2022-10-17T18:37:03.751Z,29.00
2022-10-17T18:39:34.299Z,33.00
2022-10-17T18:42:08.023Z,29.00
2022-10-17T18:44:55.261Z,25.75
2022-10-17T18:47:23.659Z,31.50
2022-10-17T18:49:54.157Z,27.00
2022-10-17T18:52:29.577Z,34.50
2022-10-17T18:55:15.761Z,35.75
2022-10-17T18:57:51.870Z,35.75
2022-10-17T19:00:26.719Z,36.50
2022-10-17T19:02:57.676Z,34.25
2022-10-17T19:19:46.946Z,37.50
2022-10-17T19:22:30.060Z,40.25
2022-10-17T19:25:06.093Z,43.25
2022-10-17T19:27:42.106Z,36.00
2022-10-17T19:30:14.171Z,36.50
2022-10-17T19:32:50.151Z,40.75
2022-10-17T19:35:22.157Z,41.50
2022-10-17T19:37:53.219Z,45.00
2022-10-17T19:40:23.775Z,37.50
2022-10-17T19:42:54.556Z,38.00
2022-10-17T19:45:30.333Z,40.50
2022-10-17T19:48:07.204Z,41.25
2022-10-17T19:50:48.178Z,44.00
2022-10-17T19:53:24.998Z,41.75
2022-10-17T19:56:16.166Z,43.25
2022-10-17T19:58:57.693Z,45.25
2022-10-17T20:01:43.455Z,44.75
2022-10-17T20:04:54.749Z,52.00
2022-10-17T20:07:36.064Z,52.75
2022-10-17T20:13:29.591Z,50.50
2022-10-17T20:16:00.256Z,38.50
2022-10-17T20:18:36.966Z,56.25
2022-10-17T20:21:11.446Z,53.25
2022-10-17T20:23:43.526Z,52.50
2022-10-17T20:28:54.013Z,60.25
2022-10-17T20:31:39.134Z,59.75
2022-10-17T20:34:18.318Z,61.75
2022-10-17T20:36:52.118Z,59.50
2022-10-17T20:39:22.502Z,57.00
2022-10-17T20:41:54.084Z,58.50
2022-10-17T20:44:24.683Z,59.00
2022-10-17T20:47:02.040Z,54.75
2022-10-17T20:49:27.130Z,57.25
2022-10-17T20:51:58.044Z,58.25
2022-10-17T20:54:30.302Z,59.25
2022-10-17T20:57:04.807Z,57.75
2022-10-17T20:59:35.853Z,56.75
2022-10-17T21:02:06.891Z,54.50
2022-10-17T21:04:47.215Z,54.75
2022-10-17T21:07:11.136Z,60.75
2022-10-17T21:09:42.537Z,58.50
2022-10-17T21:12:25.934Z,54.75
2022-10-17T21:14:49.151Z,56.75
2022-10-17T21:17:24.303Z,57.50
2022-10-17T21:19:54.898Z,50.25
2022-10-17T21:22:25.415Z,57.00
2022-10-17T21:24:56.056Z,57.00
2022-10-17T21:27:27.853Z,53.00
2022-10-17T21:29:58.313Z,53.00
2022-10-17T21:32:40.208Z,57.50
2022-10-17T21:35:02.807Z,58.00
2022-10-17T21:37:35.339Z,59.50
2022-10-17T21:40:06.385Z,58.00
2022-10-17T21:42:38.391Z,55.25
2022-10-17T21:45:15.132Z,54.00
2022-10-17T21:47:54.883Z,57.00
2022-10-17T21:50:14.076Z,55.50
2022-10-17T21:52:45.005Z,54.50
2022-10-17T21:55:15.380Z,53.75
2022-10-17T21:57:45.611Z,51.25
2022-10-17T22:00:16.606Z,56.25
2022-10-17T22:02:46.890Z,52.00
2022-10-17T22:05:17.315Z,60.00
2022-10-17T22:07:48.629Z,69.50
2022-10-17T22:10:18.807Z,66.25
2022-10-17T22:12:49.014Z,63.00
2022-10-17T22:15:19.634Z,60.25
2022-10-17T22:17:50.579Z,61.75
2022-10-17T22:20:22.503Z,53.75
2022-10-17T22:22:53.359Z,61.50
2022-10-17T22:25:23.875Z,52.50
2022-10-17T22:27:54.335Z,58.75
2022-10-17T22:30:25.293Z,56.25
2022-10-17T22:32:56.450Z,54.75
2022-10-17T22:35:26.718Z,49.75
2022-10-17T22:37:56.938Z,54.00
2022-10-17T22:40:27.086Z,55.75
2022-10-17T22:42:58.325Z,59.25
2022-10-17T22:45:29.013Z,50.00
2022-10-17T22:47:59.630Z,56.25
2022-10-17T22:50:29.950Z,51.50
2022-10-17T22:53:01.327Z,54.25
2022-10-17T22:55:33.350Z,54.50
2022-10-17T22:58:03.814Z,55.00
2022-10-17T23:00:34.113Z,52.75
2022-10-17T23:03:04.755Z,47.50
2022-10-17T23:05:35.083Z,48.00
2022-10-17T23:08:06.099Z,52.00
2022-10-17T23:10:37.183Z,53.00
2022-10-17T23:13:08.664Z,58.25
2022-10-17T23:15:40.265Z,48.75
2022-10-17T23:18:11.124Z,57.75
2022-10-17T23:20:41.358Z,58.00
2022-10-17T23:23:12.034Z,56.00
2022-10-17T23:25:48.978Z,54.50
2022-10-17T23:28:19.505Z,52.25
2022-10-17T23:30:49.673Z,52.50
2022-10-17T23:33:20.261Z,52.50
2022-10-17T23:35:50.395Z,55.25
2022-10-17T23:38:20.590Z,59.75
2022-10-17T23:40:50.827Z,55.50
2022-10-17T23:43:20.998Z,56.50
2022-10-17T23:45:51.187Z,61.25
2022-10-17T23:48:21.770Z,57.25
2022-10-17T23:50:52.007Z,63.50
2022-10-17T23:53:23.013Z,57.75
2022-10-17T23:55:53.767Z,56.00
2022-10-17T23:58:24.046Z,59.25
